createdAt,value
2017-07-28T00:02:26.486Z,16.80
2017-07-28T00:04:53.924Z,16.90
2017-07-28T00:07:21.384Z,16.80
2017-07-28T00:09:48.823Z,16.90
2017-07-28T00:12:16.323Z,16.90
2017-07-28T00:14:43.754Z,16.80
2017-07-28T00:17:11.216Z,16.80
2017-07-28T00:19:38.655Z,16.80
2017-07-28T00:22:06.095Z,16.80
2017-07-28T00:24:33.551Z,16.80
2017-07-28T00:27:00.992Z,16.90
2017-07-28T00:29:28.447Z,16.90
2017-07-28T00:31:56.648Z,16.80
2017-07-28T00:34:24.105Z,16.80
2017-07-28T00:36:51.540Z,16.80
2017-07-28T00:39:19.053Z,16.80
2017-07-28T00:41:46.600Z,16.70
2017-07-28T00:44:14.129Z,16.70
2017-07-28T00:46:41.583Z,16.60
2017-07-28T00:49:09.057Z,16.60
2017-07-28T00:51:36.500Z,16.60
2017-07-28T00:54:03.957Z,16.50
2017-07-28T00:56:31.388Z,16.60
2017-07-28T00:58:58.850Z,16.60
2017-07-28T01:01:26.303Z,16.60
2017-07-28T01:03:53.750Z,16.60
2017-07-28T01:06:22.049Z,16.60
2017-07-28T01:08:49.490Z,16.60
2017-07-28T01:11:17.704Z,16.50
2017-07-28T01:13:45.147Z,16.50
2017-07-28T01:16:12.618Z,16.50
2017-07-28T01:18:40.071Z,16.50
2017-07-28T01:21:07.520Z,16.50
2017-07-28T01:23:34.972Z,16.50
2017-07-28T01:26:02.425Z,16.50
2017-07-28T01:28:29.875Z,16.50
2017-07-28T01:30:57.324Z,16.40
2017-07-28T01:33:24.790Z,16.40
2017-07-28T01:35:52.247Z,16.40
2017-07-28T01:38:19.679Z,16.40
2017-07-28T01:40:47.153Z,16.40
2017-07-28T01:43:14.592Z,16.40
2017-07-28T01:45:42.035Z,16.50
2017-07-28T01:48:10.247Z,16.40
2017-07-28T01:50:37.715Z,16.40
2017-07-28T01:53:05.205Z,16.40
2017-07-28T01:55:32.639Z,16.40
2017-07-28T01:58:00.101Z,16.40
2017-07-28T02:00:27.560Z,16.30
2017-07-28T02:02:55.119Z,16.30
2017-07-28T02:05:22.693Z,16.40
2017-07-28T02:07:50.229Z,16.40
2017-07-28T02:10:17.792Z,16.40
2017-07-28T02:12:45.231Z,16.30
2017-07-28T02:15:12.688Z,16.30
2017-07-28T02:17:40.121Z,16.30
2017-07-28T02:20:07.568Z,16.30
2017-07-28T02:22:35.032Z,16.30
2017-07-28T02:25:02.466Z,16.30
2017-07-28T02:27:29.912Z,16.20
2017-07-28T02:29:58.150Z,16.20
2017-07-28T02:32:25.611Z,16.20
2017-07-28T02:34:53.044Z,16.20
2017-07-28T02:37:20.487Z,16.20
2017-07-28T02:39:47.953Z,16.10
2017-07-28T02:42:15.383Z,16.10
2017-07-28T02:44:42.848Z,16.00
2017-07-28T02:47:10.272Z,16.00
2017-07-28T02:49:37.727Z,16.00
2017-07-28T02:52:05.953Z,16.00
2017-07-28T02:54:33.383Z,16.10
2017-07-28T02:57:00.896Z,16.00
2017-07-28T02:59:28.363Z,15.90
2017-07-28T03:01:55.860Z,15.90
2017-07-28T03:04:23.296Z,15.80
2017-07-28T03:06:51.492Z,15.80
2017-07-28T03:09:18.960Z,15.80
2017-07-28T03:11:46.410Z,15.80
2017-07-28T03:14:13.874Z,15.70
2017-07-28T03:16:41.315Z,15.70
2017-07-28T03:19:08.751Z,15.60
2017-07-28T03:21:36.211Z,15.70
2017-07-28T03:24:03.675Z,15.60
2017-07-28T03:26:31.594Z,15.70
2017-07-28T03:28:59.060Z,15.70
2017-07-28T03:31:26.514Z,15.60
2017-07-28T03:33:53.959Z,15.60
2017-07-28T03:36:21.441Z,15.60
2017-07-28T03:38:48.896Z,15.70
2017-07-28T03:41:16.367Z,15.50
2017-07-28T03:43:44.563Z,15.50
2017-07-28T03:46:12.013Z,15.50
2017-07-28T03:48:39.452Z,15.40
2017-07-28T03:51:07.674Z,15.20
2017-07-28T03:53:35.142Z,15.20
2017-07-28T03:56:02.626Z,15.30
2017-07-28T03:58:30.078Z,15.30
2017-07-28T04:00:57.523Z,15.40
2017-07-28T04:03:24.971Z,15.40
2017-07-28T04:05:52.469Z,15.40
2017-07-28T04:08:20.707Z,15.50
2017-07-28T04:10:48.147Z,15.50
2017-07-28T04:13:15.614Z,15.40
2017-07-28T04:15:43.065Z,15.50
2017-07-28T04:18:10.530Z,15.40
2017-07-28T04:20:37.983Z,15.40
2017-07-28T04:23:05.460Z,15.40
2017-07-28T04:25:32.918Z,15.40
2017-07-28T04:28:00.375Z,15.40
2017-07-28T04:30:28.587Z,15.40
2017-07-28T04:32:56.048Z,15.40
2017-07-28T04:35:23.581Z,15.40
2017-07-28T04:37:51.179Z,15.50
2017-07-28T04:40:18.715Z,15.50
2017-07-28T04:42:46.195Z,15.60
2017-07-28T04:45:13.655Z,15.60
2017-07-28T04:47:41.119Z,15.70
2017-07-28T04:50:08.564Z,15.70
2017-07-28T04:52:36.009Z,15.70
2017-07-28T04:55:03.480Z,15.70
2017-07-28T04:57:30.921Z,15.70
2017-07-28T04:59:58.389Z,15.70
2017-07-28T05:02:25.847Z,15.70
2017-07-28T05:04:53.293Z,15.80
2017-07-28T05:07:20.757Z,15.80
2017-07-28T05:09:48.202Z,15.90
2017-07-28T05:12:15.646Z,15.90
2017-07-28T05:14:43.103Z,15.90
2017-07-28T05:17:10.544Z,15.90
2017-07-28T05:19:38.775Z,15.90
2017-07-28T05:22:06.216Z,15.90
2017-07-28T05:24:33.665Z,15.90
2017-07-28T05:27:01.120Z,16.00
2017-07-28T05:29:28.605Z,16.00
2017-07-28T05:31:56.066Z,16.00
2017-07-28T05:34:23.505Z,16.00
2017-07-28T05:36:50.946Z,16.20
2017-07-28T05:39:18.404Z,16.30
2017-07-28T05:41:45.848Z,16.40
2017-07-28T05:44:13.305Z,16.50
2017-07-28T05:46:40.747Z,16.60
2017-07-28T05:49:08.214Z,16.50
2017-07-28T05:51:35.649Z,16.60
2017-07-28T05:54:03.098Z,16.60
2017-07-28T05:56:31.329Z,17.90
2017-07-28T05:58:58.766Z,17.80
2017-07-28T06:01:26.246Z,19.00
2017-07-28T06:03:53.684Z,20.20
2017-07-28T06:06:21.164Z,21.20
2017-07-28T06:08:48.599Z,21.90
2017-07-28T06:11:16.036Z,21.60
2017-07-28T06:13:43.502Z,22.70
2017-07-28T06:16:10.941Z,22.30
2017-07-28T06:18:39.029Z,22.90
2017-07-28T06:21:07.102Z,23.70
2017-07-28T06:23:34.588Z,24.60
2017-07-28T06:26:02.060Z,23.80
2017-07-28T06:28:29.492Z,24.10
2017-07-28T06:30:56.948Z,24.40
2017-07-28T06:33:24.423Z,25.10
2017-07-28T06:35:51.901Z,25.70
2017-07-28T06:38:20.140Z,26.40
2017-07-28T06:40:47.577Z,26.40
2017-07-28T06:43:15.070Z,25.80
2017-07-28T06:45:42.503Z,24.50
2017-07-28T06:48:09.965Z,25.10
2017-07-28T06:50:37.398Z,25.10
2017-07-28T06:53:04.854Z,24.90
2017-07-28T06:55:32.301Z,24.90
2017-07-28T06:57:59.732Z,25.10
2017-07-28T07:00:27.956Z,24.60
2017-07-28T07:02:55.397Z,24.60
2017-07-28T07:05:22.851Z,23.80
2017-07-28T07:07:50.293Z,23.60
2017-07-28T07:10:17.740Z,24.40
2017-07-28T07:12:45.192Z,25.50
2017-07-28T07:15:12.653Z,26.40
2017-07-28T07:17:40.103Z,26.10
2017-07-28T07:20:07.559Z,26.10
2017-07-28T07:22:35.009Z,25.70
2017-07-28T07:25:02.459Z,25.70
2017-07-28T07:27:29.895Z,25.80
2017-07-28T07:29:57.420Z,26.10
2017-07-28T07:32:24.852Z,26.70
2017-07-28T07:34:52.439Z,25.70
2017-07-28T07:37:19.913Z,25.90
2017-07-28T07:39:47.385Z,25.60
2017-07-28T07:42:14.824Z,25.60
2017-07-28T07:44:42.263Z,26.30
2017-07-28T07:47:09.727Z,26.60
2017-07-28T07:49:37.152Z,26.70
2017-07-28T07:52:04.599Z,25.70
2017-07-28T07:54:32.063Z,24.00
2017-07-28T07:56:59.525Z,22.60
2017-07-28T07:59:26.959Z,21.80
2017-07-28T08:01:54.431Z,21.60
2017-07-28T08:04:21.902Z,20.80
2017-07-28T08:06:49.338Z,20.80
2017-07-28T08:09:16.795Z,20.70
2017-07-28T08:11:44.340Z,20.60
2017-07-28T08:14:11.848Z,20.70
2017-07-28T08:16:39.288Z,20.80
2017-07-28T08:19:06.757Z,21.20
2017-07-28T08:21:34.187Z,21.20
2017-07-28T08:24:01.676Z,21.10
2017-07-28T08:26:29.147Z,20.80
2017-07-28T08:28:56.584Z,20.80
2017-07-28T08:31:24.043Z,20.70
2017-07-28T08:33:51.571Z,20.90
2017-07-28T08:36:19.065Z,21.10
2017-07-28T08:38:46.500Z,21.20
2017-07-28T08:41:13.950Z,21.30
2017-07-28T08:43:41.388Z,21.10
2017-07-28T08:46:08.848Z,20.70
2017-07-28T08:48:36.283Z,20.80
2017-07-28T08:51:03.750Z,21.00
2017-07-28T08:53:31.273Z,20.70
2017-07-28T08:55:58.736Z,20.60
2017-07-28T08:58:26.207Z,20.80
2017-07-28T09:00:53.678Z,20.90
2017-07-28T09:03:21.910Z,20.80
2017-07-28T09:05:49.360Z,20.80
2017-07-28T09:08:16.825Z,20.90
2017-07-28T09:10:44.273Z,20.90
2017-07-28T09:13:11.760Z,21.10
2017-07-28T09:15:39.228Z,21.00
2017-07-28T09:18:06.659Z,21.10
2017-07-28T09:20:34.905Z,21.50
2017-07-28T09:23:02.346Z,21.50
2017-07-28T09:25:29.857Z,21.70
2017-07-28T09:27:57.368Z,22.00
2017-07-28T09:30:24.961Z,22.20
2017-07-28T09:32:52.430Z,22.30
2017-07-28T09:35:20.636Z,22.70
2017-07-28T09:37:48.084Z,22.70
2017-07-28T09:40:15.515Z,22.90
2017-07-28T09:42:43.868Z,23.70
2017-07-28T09:45:11.326Z,23.70
2017-07-28T09:47:38.780Z,23.80
2017-07-28T09:50:06.908Z,23.50
2017-07-28T09:52:34.370Z,23.30
2017-07-28T09:55:01.853Z,23.20
2017-07-28T09:57:29.321Z,23.10
2017-07-28T09:59:56.767Z,22.50
2017-07-28T10:02:24.215Z,22.30
2017-07-28T10:04:51.647Z,22.20
2017-07-28T10:07:19.117Z,22.10
2017-07-28T10:09:46.581Z,22.20
2017-07-28T10:12:14.044Z,22.40
2017-07-28T10:14:41.475Z,22.50
2017-07-28T10:17:08.919Z,22.90
2017-07-28T10:19:36.356Z,22.80
2017-07-28T10:22:04.595Z,22.60
2017-07-28T10:24:32.031Z,22.60
2017-07-28T10:26:59.495Z,22.40
2017-07-28T10:29:26.937Z,22.60
2017-07-28T10:31:54.388Z,22.90
2017-07-28T10:34:22.757Z,23.30
2017-07-28T10:36:50.233Z,23.20
2017-07-28T10:39:17.701Z,22.90
2017-07-28T10:41:45.160Z,22.50
2017-07-28T10:44:12.617Z,22.50
2017-07-28T10:46:40.043Z,22.90
2017-07-28T10:49:07.496Z,22.90
2017-07-28T10:51:34.930Z,23.00
2017-07-28T10:54:02.393Z,23.90
2017-07-28T10:56:29.834Z,24.20
2017-07-28T10:58:58.060Z,23.90
2017-07-28T11:01:25.494Z,23.90
2017-07-28T11:03:52.929Z,23.50
2017-07-28T11:06:21.152Z,23.50
2017-07-28T11:08:48.587Z,23.50
2017-07-28T11:11:16.072Z,23.40
2017-07-28T11:13:43.508Z,23.10
2017-07-28T11:16:10.968Z,22.90
2017-07-28T11:18:38.423Z,22.50
2017-07-28T11:21:05.891Z,22.10
2017-07-28T11:23:33.323Z,21.80
2017-07-28T11:26:00.759Z,21.70
2017-07-28T11:28:28.242Z,22.00
2017-07-28T11:30:55.680Z,22.50
2017-07-28T11:33:23.131Z,23.10
2017-07-28T11:35:50.605Z,23.50
2017-07-28T11:38:18.041Z,23.60
2017-07-28T11:40:45.500Z,23.20
2017-07-28T11:43:12.931Z,22.90
2017-07-28T11:45:41.133Z,22.80
2017-07-28T11:48:08.588Z,22.80
2017-07-28T11:50:36.016Z,23.40
2017-07-28T11:53:03.463Z,24.10
2017-07-28T11:55:30.924Z,24.80
2017-07-28T11:57:59.152Z,25.30
2017-07-28T12:00:26.612Z,25.20
2017-07-28T12:02:54.070Z,25.90
2017-07-28T12:05:21.527Z,26.00
2017-07-28T12:07:49.008Z,25.50
2017-07-28T12:10:16.488Z,24.40
2017-07-28T12:12:44.729Z,24.70
2017-07-28T12:15:12.186Z,24.70
2017-07-28T12:17:39.619Z,25.60
2017-07-28T12:20:07.074Z,25.50
2017-07-28T12:22:34.520Z,25.40
2017-07-28T12:25:01.954Z,25.30
2017-07-28T12:27:29.407Z,25.10
2017-07-28T12:29:57.624Z,25.00
2017-07-28T12:32:25.082Z,24.90
2017-07-28T12:34:52.531Z,25.00
2017-07-28T12:37:19.979Z,24.90
2017-07-28T12:39:47.427Z,24.80
2017-07-28T12:42:14.932Z,24.80
2017-07-28T12:44:42.386Z,24.60
2017-07-28T12:47:09.863Z,23.80
2017-07-28T12:49:38.095Z,24.10
2017-07-28T12:52:05.527Z,24.10
2017-07-28T12:54:32.979Z,24.80
2017-07-28T12:57:00.427Z,25.20
2017-07-28T12:59:27.864Z,24.80
2017-07-28T13:01:56.092Z,24.70
2017-07-28T13:04:23.556Z,24.70
2017-07-28T13:06:50.995Z,24.80
2017-07-28T13:09:18.468Z,25.00
2017-07-28T13:11:45.975Z,25.30
2017-07-28T13:14:14.165Z,24.90
2017-07-28T13:16:41.642Z,24.90
2017-07-28T13:19:09.068Z,25.20
2017-07-28T13:21:36.522Z,25.50
2017-07-28T13:24:03.987Z,25.60
2017-07-28T13:26:31.468Z,26.00
2017-07-28T13:28:58.899Z,25.70
2017-07-28T13:31:26.365Z,25.70
2017-07-28T13:33:53.841Z,25.70
2017-07-28T13:36:21.282Z,25.40
2017-07-28T13:38:48.733Z,24.50
2017-07-28T13:41:16.175Z,24.50
2017-07-28T13:43:43.647Z,24.60
2017-07-28T13:46:16.760Z,24.90
2017-07-28T13:48:44.200Z,25.20
2017-07-28T13:51:11.661Z,25.50
2017-07-28T13:53:39.118Z,25.60
2017-07-28T13:56:06.612Z,25.80
2017-07-28T13:58:34.093Z,25.80
2017-07-28T14:01:01.542Z,25.60
2017-07-28T14:03:29.776Z,25.10
2017-07-28T14:05:57.210Z,25.10
2017-07-28T14:08:24.645Z,25.20
2017-07-28T14:10:52.105Z,25.50
2017-07-28T14:13:19.716Z,25.30
2017-07-28T14:15:47.148Z,24.90
2017-07-28T14:18:14.612Z,24.50
2017-07-28T14:20:42.065Z,24.40
2017-07-28T14:23:09.520Z,24.70
2017-07-28T14:25:36.961Z,24.90
2017-07-28T14:28:04.428Z,24.90
2017-07-28T14:30:31.860Z,25.20
2017-07-28T14:32:59.319Z,25.30
2017-07-28T14:35:26.776Z,25.30
2017-07-28T14:37:54.237Z,25.50
2017-07-28T14:40:21.697Z,25.20
2017-07-28T14:42:49.138Z,25.00
2017-07-28T14:45:16.588Z,25.20
2017-07-28T14:47:44.052Z,25.30
2017-07-28T14:50:11.507Z,25.20
2017-07-28T14:52:38.952Z,25.10
2017-07-28T14:55:06.415Z,24.60
2017-07-28T14:57:33.867Z,24.00
2017-07-28T15:00:01.314Z,23.70
2017-07-28T15:02:28.776Z,23.70
2017-07-28T15:04:56.229Z,23.60
2017-07-28T15:07:23.659Z,23.60
2017-07-28T15:09:53.295Z,23.50
2017-07-28T15:12:20.739Z,23.50
2017-07-28T15:14:48.194Z,23.50
2017-07-28T15:17:15.636Z,23.40
2017-07-28T15:19:43.864Z,23.50
2017-07-28T15:22:11.291Z,23.50
2017-07-28T15:24:38.746Z,23.60
2017-07-28T15:27:06.183Z,23.50
2017-07-28T15:29:34.408Z,23.30
2017-07-28T15:32:01.841Z,23.20
2017-07-28T15:34:29.270Z,23.30
2017-07-28T15:36:57.509Z,23.20
2017-07-28T15:39:24.968Z,23.20
2017-07-28T15:41:52.396Z,23.10
2017-07-28T15:44:19.871Z,22.90
2017-07-28T15:46:47.333Z,22.90
2017-07-28T15:49:14.756Z,22.90
2017-07-28T15:51:42.260Z,22.90
2017-07-28T15:54:09.721Z,23.00
2017-07-28T15:56:37.154Z,23.00
2017-07-28T15:59:04.625Z,23.00
2017-07-28T16:01:32.053Z,23.10
2017-07-28T16:03:59.489Z,23.00
2017-07-28T16:06:26.941Z,23.40
2017-07-28T16:08:54.391Z,23.30
2017-07-28T16:11:21.862Z,23.40
2017-07-28T16:13:49.295Z,23.60
2017-07-28T16:16:16.752Z,23.90
2017-07-28T16:18:44.200Z,24.00
2017-07-28T16:21:11.642Z,24.20
2017-07-28T16:23:39.860Z,23.90
2017-07-28T16:26:07.384Z,23.90
2017-07-28T16:28:34.907Z,23.80
2017-07-28T16:31:02.471Z,23.70
2017-07-28T16:33:29.936Z,23.70
2017-07-28T16:35:57.414Z,23.80
2017-07-28T16:38:24.859Z,23.60
2017-07-28T16:40:53.090Z,23.30
2017-07-28T16:43:20.520Z,23.20
2017-07-28T16:45:47.976Z,23.20
2017-07-28T16:48:15.436Z,23.10
2017-07-28T16:50:42.991Z,23.10
2017-07-28T16:53:10.538Z,23.00
2017-07-28T16:55:38.006Z,23.00
2017-07-28T16:58:05.436Z,23.10
2017-07-28T17:00:33.659Z,23.00
2017-07-28T17:03:01.175Z,23.00
2017-07-28T17:05:29.372Z,23.00
2017-07-28T17:07:56.839Z,22.90
2017-07-28T17:10:24.277Z,22.80
2017-07-28T17:12:51.711Z,22.80
2017-07-28T17:15:19.921Z,22.60
2017-07-28T17:17:47.360Z,22.60
2017-07-28T17:20:14.820Z,22.70
2017-07-28T17:22:42.261Z,22.70
2017-07-28T17:25:09.700Z,22.70
2017-07-28T17:27:37.931Z,22.80
2017-07-28T17:30:05.455Z,22.80
2017-07-28T17:32:33.060Z,22.80
2017-07-28T17:35:00.540Z,22.80
2017-07-28T17:37:27.978Z,22.70
2017-07-28T17:39:55.439Z,22.50
2017-07-28T17:42:22.877Z,22.40
2017-07-28T17:44:50.330Z,22.40
2017-07-28T17:47:17.767Z,22.40
2017-07-28T17:49:45.220Z,22.50
2017-07-28T17:52:12.721Z,22.50
2017-07-28T17:54:40.173Z,22.50
2017-07-28T17:57:07.615Z,22.50
2017-07-28T17:59:35.086Z,22.40
2017-07-28T18:02:02.540Z,22.50
2017-07-28T18:04:30.002Z,22.50
2017-07-28T18:06:57.437Z,22.40
2017-07-28T18:09:24.952Z,22.30
2017-07-28T18:11:52.519Z,22.30
2017-07-28T18:14:19.963Z,22.30
2017-07-28T18:16:48.188Z,22.10
2017-07-28T18:19:15.622Z,22.10
2017-07-28T18:21:43.083Z,22.10
2017-07-28T18:24:10.516Z,22.00
2017-07-28T18:26:37.976Z,22.00
2017-07-28T18:29:05.430Z,22.10
2017-07-28T18:31:32.864Z,22.00
2017-07-28T18:34:01.094Z,22.00
2017-07-28T18:36:29.138Z,22.00
2017-07-28T18:38:56.593Z,21.90
2017-07-28T18:41:24.025Z,21.90
2017-07-28T18:43:53.059Z,21.80
2017-07-28T18:46:20.548Z,21.80
2017-07-28T18:48:48.004Z,21.70
2017-07-28T18:51:15.514Z,21.80
2017-07-28T18:53:42.961Z,21.80
2017-07-28T18:56:10.414Z,21.80
2017-07-28T18:58:37.919Z,21.70
2017-07-28T19:01:05.453Z,21.70
2017-07-28T19:03:32.971Z,21.70
2017-07-28T19:06:01.184Z,21.60
2017-07-28T19:08:28.641Z,21.60
2017-07-28T19:10:56.084Z,21.50
2017-07-28T19:13:23.588Z,21.50
2017-07-28T19:15:51.017Z,21.50
2017-07-28T19:18:19.044Z,21.40
2017-07-28T19:20:46.517Z,21.40
2017-07-28T19:23:14.021Z,21.40
2017-07-28T19:25:41.500Z,21.40
2017-07-28T19:28:08.946Z,21.20
2017-07-28T19:30:36.392Z,21.20
2017-07-28T19:33:03.871Z,21.20
2017-07-28T19:35:31.342Z,21.20
2017-07-28T19:37:59.576Z,21.30
2017-07-28T19:40:27.029Z,21.30
2017-07-28T19:42:54.491Z,21.30
2017-07-28T19:45:22.088Z,21.30
2017-07-28T19:47:50.324Z,21.20
2017-07-28T19:50:17.780Z,21.20
2017-07-28T19:52:45.324Z,21.10
2017-07-28T19:55:12.820Z,21.10
2017-07-28T19:57:41.011Z,21.20
2017-07-28T20:00:08.464Z,21.20
2017-07-28T20:02:36.047Z,21.10
2017-07-28T20:05:03.541Z,21.10
2017-07-28T20:07:31.000Z,21.00
2017-07-28T20:09:58.452Z,20.90
2017-07-28T20:12:25.894Z,20.90
2017-07-28T20:14:53.620Z,20.80
2017-07-28T20:17:21.071Z,20.90
2017-07-28T20:19:48.550Z,21.00
2017-07-28T20:22:15.991Z,20.90
2017-07-28T20:24:43.479Z,20.80
2017-07-28T20:27:11.019Z,20.90
2017-07-28T20:29:38.467Z,20.90
2017-07-28T20:32:05.951Z,20.90
2017-07-28T20:34:33.419Z,20.90
2017-07-28T20:37:00.873Z,20.90
2017-07-28T20:39:28.338Z,20.90
2017-07-28T20:41:55.799Z,20.80
2017-07-28T20:44:23.288Z,20.80
2017-07-28T20:46:50.824Z,20.80
2017-07-28T20:49:18.311Z,20.70
2017-07-28T20:51:45.774Z,20.70
2017-07-28T20:54:13.223Z,20.60
2017-07-28T20:56:40.679Z,20.50
2017-07-28T20:59:08.144Z,20.60
2017-07-28T21:01:35.559Z,20.60
2017-07-28T21:04:03.134Z,20.70
2017-07-28T21:06:30.609Z,20.70
2017-07-28T21:08:58.091Z,20.70
2017-07-28T21:11:25.532Z,20.70
2017-07-28T21:14:05.349Z,20.60
2017-07-28T21:16:32.840Z,20.60
2017-07-28T21:19:00.289Z,20.60
2017-07-28T21:21:27.740Z,20.60
2017-07-28T21:23:55.190Z,20.60
2017-07-28T21:26:22.696Z,20.60
2017-07-28T21:28:50.165Z,20.50
2017-07-28T21:31:18.363Z,20.50
2017-07-28T21:33:45.816Z,20.40
2017-07-28T21:36:13.252Z,20.50
2017-07-28T21:38:40.727Z,20.30
2017-07-28T21:41:08.238Z,20.20
2017-07-28T21:43:35.696Z,20.20
2017-07-28T21:46:03.152Z,20.20
2017-07-28T21:48:30.576Z,20.10
2017-07-28T21:50:58.052Z,20.10
2017-07-28T21:53:25.531Z,20.10
2017-07-28T21:55:52.984Z,20.00
2017-07-28T21:58:20.459Z,20.00
2017-07-28T22:00:47.927Z,19.90
2017-07-28T22:03:15.379Z,20.00
2017-07-28T22:05:42.853Z,20.00
2017-07-28T22:08:10.271Z,20.00
2017-07-28T22:10:38.512Z,19.90
2017-07-28T22:13:05.945Z,19.90
2017-07-28T22:15:33.408Z,19.90
2017-07-28T22:18:00.898Z,19.90
2017-07-28T22:20:28.354Z,19.80
2017-07-28T22:22:55.853Z,19.80
2017-07-28T22:25:23.283Z,19.80
2017-07-28T22:27:51.525Z,19.80
2017-07-28T22:30:18.953Z,19.80
2017-07-28T22:32:46.448Z,19.70
2017-07-28T22:35:13.893Z,19.80
2017-07-28T22:37:41.327Z,19.80
2017-07-28T22:40:08.800Z,19.80
2017-07-28T22:42:36.290Z,19.80
2017-07-28T22:45:04.517Z,19.70
2017-07-28T22:47:31.997Z,19.70
2017-07-28T22:49:59.451Z,19.70
2017-07-28T22:52:26.959Z,19.70
2017-07-28T22:54:54.956Z,19.70
2017-07-28T22:57:22.420Z,19.70
2017-07-28T22:59:49.866Z,19.60
2017-07-28T23:02:17.333Z,19.60
2017-07-28T23:04:44.814Z,19.70
2017-07-28T23:07:12.256Z,19.60
2017-07-28T23:09:39.750Z,19.60
2017-07-28T23:12:07.976Z,19.60
2017-07-28T23:14:35.529Z,19.60
2017-07-28T23:17:02.985Z,19.50
2017-07-28T23:19:30.567Z,19.50
2017-07-28T23:21:58.038Z,19.50
2017-07-28T23:24:26.264Z,19.40
2017-07-28T23:26:53.789Z,19.50
2017-07-28T23:29:22.010Z,19.40
2017-07-28T23:31:49.449Z,19.40
2017-07-28T23:34:16.907Z,19.30
2017-07-28T23:36:44.364Z,19.30
2017-07-28T23:39:11.801Z,19.30
2017-07-28T23:41:39.272Z,19.30
2017-07-28T23:44:06.735Z,19.30
2017-07-28T23:46:34.177Z,19.30
2017-07-28T23:49:01.644Z,19.40
2017-07-28T23:51:29.085Z,19.30
2017-07-28T23:53:56.516Z,19.30
2017-07-28T23:56:23.973Z,19.30
2017-07-28T23:58:51.420Z,19.30
